sensor_id;sensor_type;location;lat;lon;timestamp;pressure;altitude;pressure_sealevel;temperature;humidity
59391;BME280;53405;57.012;40.984;2022-07-17T00:01:27;100018.31;;;16.03;68.62
59391;BME280;53405;57.012;40.984;2022-07-17T00:04:14;100018.75;;;16.00;68.72
59391;BME280;53405;57.012;40.984;2022-07-17T00:07:02;100004.06;;;15.91;68.91
59391;BME280;53405;57.012;40.984;2022-07-17T00:09:49;100015.47;;;15.98;68.84
59391;BME280;53405;57.012;40.984;2022-07-17T00:12:37;100024.44;;;16.04;68.83
59391;BME280;53405;57.012;40.984;2022-07-17T00:15:25;99997.72;;;15.92;68.90
59391;BME280;53405;57.012;40.984;2022-07-17T00:18:12;100019.97;;;15.98;68.98
59391;BME280;53405;57.012;40.984;2022-07-17T00:21:00;100013.44;;;15.94;69.17
59391;BME280;53405;57.012;40.984;2022-07-17T00:23:48;100014.06;;;15.96;69.03
59391;BME280;53405;57.012;40.984;2022-07-17T00:26:36;100012.59;;;16.00;69.14
59391;BME280;53405;57.012;40.984;2022-07-17T00:29:23;100006.31;;;15.87;69.31
59391;BME280;53405;57.012;40.984;2022-07-17T00:32:11;100020.00;;;15.91;69.14
59391;BME280;53405;57.012;40.984;2022-07-17T00:34:58;100007.53;;;15.92;69.28
59391;BME280;53405;57.012;40.984;2022-07-17T00:37:47;100017.53;;;15.96;69.02
59391;BME280;53405;57.012;40.984;2022-07-17T00:40:36;100010.41;;;15.90;69.31
59391;BME280;53405;57.012;40.984;2022-07-17T00:43:24;100012.31;;;15.69;70.07
59391;BME280;53405;57.012;40.984;2022-07-17T00:46:11;100020.06;;;15.78;69.77
59391;BME280;53405;57.012;40.984;2022-07-17T00:48:59;100016.97;;;15.81;69.53
59391;BME280;53405;57.012;40.984;2022-07-17T00:51:47;100015.97;;;15.82;69.54
59391;BME280;53405;57.012;40.984;2022-07-17T00:54:39;100014.75;;;15.78;69.72
59391;BME280;53405;57.012;40.984;2022-07-17T00:57:27;100016.19;;;15.74;69.92
59391;BME280;53405;57.012;40.984;2022-07-17T01:00:16;100009.88;;;15.68;70.27
59391;BME280;53405;57.012;40.984;2022-07-17T01:03:04;100009.88;;;15.68;70.08
59391;BME280;53405;57.012;40.984;2022-07-17T01:05:52;100017.25;;;15.59;70.16
59391;BME280;53405;57.012;40.984;2022-07-17T01:08:40;100014.19;;;15.56;70.69
59391;BME280;53405;57.012;40.984;2022-07-17T01:11:28;100006.00;;;15.64;70.41
59391;BME280;53405;57.012;40.984;2022-07-17T01:14:16;100009.91;;;15.61;70.00
59391;BME280;53405;57.012;40.984;2022-07-17T01:17:04;100011.72;;;15.61;69.89
59391;BME280;53405;57.012;40.984;2022-07-17T01:19:52;100000.75;;;15.50;70.67
59391;BME280;53405;57.012;40.984;2022-07-17T01:22:47;100005.50;;;15.35;71.29
59391;BME280;53405;57.012;40.984;2022-07-17T01:25:35;100013.69;;;15.27;71.58
59391;BME280;53405;57.012;40.984;2022-07-17T01:28:23;100009.59;;;15.24;71.56
59391;BME280;53405;57.012;40.984;2022-07-17T01:31:10;100018.22;;;15.06;72.02
59391;BME280;53405;57.012;40.984;2022-07-17T01:33:59;100021.84;;;15.25;71.47
59391;BME280;53405;57.012;40.984;2022-07-17T01:36:48;100008.94;;;15.35;71.33
59391;BME280;53405;57.012;40.984;2022-07-17T01:39:36;100020.38;;;15.43;70.82
59391;BME280;53405;57.012;40.984;2022-07-17T01:42:44;100009.56;;;15.38;70.89
59391;BME280;53405;57.012;40.984;2022-07-17T01:45:32;100001.41;;;15.39;70.77
59391;BME280;53405;57.012;40.984;2022-07-17T01:48:27;100024.41;;;15.59;70.62
59391;BME280;53405;57.012;40.984;2022-07-17T01:51:15;100020.88;;;15.71;70.19
59391;BME280;53405;57.012;40.984;2022-07-17T01:54:02;99994.56;;;15.63;70.21
59391;BME280;53405;57.012;40.984;2022-07-17T01:56:50;100015.72;;;15.90;69.55
59391;BME280;53405;57.012;40.984;2022-07-17T01:59:38;100015.41;;;16.05;68.62
59391;BME280;53405;57.012;40.984;2022-07-17T02:02:26;100014.34;;;16.19;68.57
59391;BME280;53405;57.012;40.984;2022-07-17T02:05:14;100010.41;;;16.22;68.17
59391;BME280;53405;57.012;40.984;2022-07-17T02:08:02;100018.78;;;16.25;68.28
59391;BME280;53405;57.012;40.984;2022-07-17T02:10:49;100014.75;;;16.16;68.30
59391;BME280;53405;57.012;40.984;2022-07-17T02:13:37;100022.75;;;16.10;68.76
59391;BME280;53405;57.012;40.984;2022-07-17T02:16:25;100023.69;;;15.90;69.20
59391;BME280;53405;57.012;40.984;2022-07-17T02:19:12;100024.09;;;15.87;68.80
59391;BME280;53405;57.012;40.984;2022-07-17T02:22:00;100037.97;;;15.96;68.75
59391;BME280;53405;57.012;40.984;2022-07-17T02:24:47;100025.66;;;16.01;68.69
59391;BME280;53405;57.012;40.984;2022-07-17T02:27:36;100023.38;;;16.12;68.29
59391;BME280;53405;57.012;40.984;2022-07-17T02:30:24;100024.13;;;16.19;68.16
59391;BME280;53405;57.012;40.984;2022-07-17T02:33:11;100019.44;;;16.21;68.11
59391;BME280;53405;57.012;40.984;2022-07-17T02:35:59;100020.50;;;16.06;68.38
59391;BME280;53405;57.012;40.984;2022-07-17T02:38:48;100018.22;;;16.17;68.23
59391;BME280;53405;57.012;40.984;2022-07-17T02:41:36;100022.63;;;16.30;67.64
59391;BME280;53405;57.012;40.984;2022-07-17T02:44:24;100028.13;;;16.35;67.44
59391;BME280;53405;57.012;40.984;2022-07-17T02:47:12;100025.66;;;16.33;66.93
59391;BME280;53405;57.012;40.984;2022-07-17T02:50:00;100031.19;;;16.38;67.08
59391;BME280;53405;57.012;40.984;2022-07-17T02:52:50;100026.81;;;16.44;66.29
59391;BME280;53405;57.012;40.984;2022-07-17T02:55:38;100022.13;;;16.46;66.21
59391;BME280;53405;57.012;40.984;2022-07-17T02:58:25;100026.19;;;16.49;66.10
59391;BME280;53405;57.012;40.984;2022-07-17T03:01:13;100028.03;;;16.48;65.58
59391;BME280;53405;57.012;40.984;2022-07-17T03:04:01;100041.22;;;16.61;66.24
59391;BME280;53405;57.012;40.984;2022-07-17T03:06:48;100026.09;;;16.62;65.96
59391;BME280;53405;57.012;40.984;2022-07-17T03:09:37;100027.88;;;16.68;65.38
59391;BME280;53405;57.012;40.984;2022-07-17T03:12:25;100017.25;;;16.68;65.51
59391;BME280;53405;57.012;40.984;2022-07-17T03:15:12;100019.25;;;16.73;65.35
59391;BME280;53405;57.012;40.984;2022-07-17T03:18:00;100027.19;;;16.79;65.44
59391;BME280;53405;57.012;40.984;2022-07-17T03:20:47;100026.34;;;16.86;65.22
59391;BME280;53405;57.012;40.984;2022-07-17T03:23:35;100013.56;;;16.94;65.23
59391;BME280;53405;57.012;40.984;2022-07-17T03:26:23;99989.69;;;16.88;65.17
59391;BME280;53405;57.012;40.984;2022-07-17T03:29:10;100021.56;;;17.13;64.86
59391;BME280;53405;57.012;40.984;2022-07-17T03:31:58;100018.53;;;17.28;64.81
59391;BME280;53405;57.012;40.984;2022-07-17T03:34:45;100021.72;;;17.37;65.12
59391;BME280;53405;57.012;40.984;2022-07-17T03:37:33;100013.88;;;17.42;64.51
59391;BME280;53405;57.012;40.984;2022-07-17T03:40:21;99986.38;;;17.29;65.24
59391;BME280;53405;57.012;40.984;2022-07-17T03:43:08;100012.63;;;17.44;65.04
59391;BME280;53405;57.012;40.984;2022-07-17T03:45:56;100002.00;;;17.44;64.47
59391;BME280;53405;57.012;40.984;2022-07-17T03:48:44;100009.97;;;17.63;63.22
59391;BME280;53405;57.012;40.984;2022-07-17T03:51:32;100008.25;;;17.68;63.77
59391;BME280;53405;57.012;40.984;2022-07-17T03:54:19;100003.88;;;17.74;63.53
59391;BME280;53405;57.012;40.984;2022-07-17T03:57:07;100001.69;;;17.83;63.47
59391;BME280;53405;57.012;40.984;2022-07-17T03:59:54;100011.88;;;17.93;63.23
59391;BME280;53405;57.012;40.984;2022-07-17T04:02:42;100010.69;;;17.88;63.42
59391;BME280;53405;57.012;40.984;2022-07-17T04:05:29;100002.28;;;18.03;62.76
59391;BME280;53405;57.012;40.984;2022-07-17T04:08:17;99985.13;;;17.99;61.61
59391;BME280;53405;57.012;40.984;2022-07-17T04:11:06;100009.06;;;18.18;61.55
59391;BME280;53405;57.012;40.984;2022-07-17T04:13:56;100004.78;;;18.29;60.31
59391;BME280;53405;57.012;40.984;2022-07-17T04:16:44;99997.84;;;18.39;58.26
59391;BME280;53405;57.012;40.984;2022-07-17T04:19:31;99999.38;;;18.47;58.97
59391;BME280;53405;57.012;40.984;2022-07-17T04:22:19;99990.56;;;18.47;57.64
59391;BME280;53405;57.012;40.984;2022-07-17T04:25:07;99989.06;;;18.63;57.83
59391;BME280;53405;57.012;40.984;2022-07-17T04:27:54;100000.34;;;18.76;59.10
59391;BME280;53405;57.012;40.984;2022-07-17T04:30:42;99991.78;;;18.86;58.45
59391;BME280;53405;57.012;40.984;2022-07-17T04:33:30;99997.47;;;18.90;57.38
59391;BME280;53405;57.012;40.984;2022-07-17T04:36:18;99987.34;;;18.80;58.59
59391;BME280;53405;57.012;40.984;2022-07-17T04:39:05;99994.09;;;18.94;58.88
59391;BME280;53405;57.012;40.984;2022-07-17T04:41:53;99996.41;;;19.03;59.04
59391;BME280;53405;57.012;40.984;2022-07-17T04:44:40;99996.06;;;19.11;58.99
59391;BME280;53405;57.012;40.984;2022-07-17T04:47:28;99985.34;;;19.23;57.13
59391;BME280;53405;57.012;40.984;2022-07-17T04:50:16;99985.69;;;19.26;56.36
59391;BME280;53405;57.012;40.984;2022-07-17T04:53:03;99966.19;;;19.26;56.26
59391;BME280;53405;57.012;40.984;2022-07-17T04:55:51;99964.94;;;19.28;56.69
59391;BME280;53405;57.012;40.984;2022-07-17T04:58:38;99979.88;;;19.41;56.00
59391;BME280;53405;57.012;40.984;2022-07-17T05:01:26;99980.44;;;19.43;55.75
59391;BME280;53405;57.012;40.984;2022-07-17T05:04:14;99970.78;;;19.42;55.46
59391;BME280;53405;57.012;40.984;2022-07-17T05:07:01;99974.75;;;19.40;55.36
59391;BME280;53405;57.012;40.984;2022-07-17T05:09:50;99977.28;;;19.46;55.22
59391;BME280;53405;57.012;40.984;2022-07-17T05:12:37;99975.97;;;19.61;55.51
59391;BME280;53405;57.012;40.984;2022-07-17T05:15:25;99967.31;;;19.71;55.13
59391;BME280;53405;57.012;40.984;2022-07-17T05:18:12;99972.66;;;19.82;54.66
59391;BME280;53405;57.012;40.984;2022-07-17T05:21:00;99970.16;;;19.93;54.74
59391;BME280;53405;57.012;40.984;2022-07-17T05:23:48;99975.94;;;20.01;54.51
59391;BME280;53405;57.012;40.984;2022-07-17T05:26:35;99971.97;;;20.04;55.62
59391;BME280;53405;57.012;40.984;2022-07-17T05:29:23;99969.16;;;20.11;54.74
59391;BME280;53405;57.012;40.984;2022-07-17T05:32:10;99975.47;;;20.21;54.13
59391;BME280;53405;57.012;40.984;2022-07-17T05:34:58;99956.53;;;20.23;53.72
59391;BME280;53405;57.012;40.984;2022-07-17T05:37:46;99961.13;;;20.62;53.14
59391;BME280;53405;57.012;40.984;2022-07-17T05:40:33;99974.50;;;20.79;52.28
59391;BME280;53405;57.012;40.984;2022-07-17T05:43:21;99965.75;;;20.83;53.07
59391;BME280;53405;57.012;40.984;2022-07-17T05:46:09;99973.84;;;20.88;54.00
59391;BME280;53405;57.012;40.984;2022-07-17T05:48:56;99976.69;;;20.82;55.12
59391;BME280;53405;57.012;40.984;2022-07-17T05:51:44;99968.66;;;20.82;55.02
59391;BME280;53405;57.012;40.984;2022-07-17T05:54:32;99962.81;;;20.85;52.70
59391;BME280;53405;57.012;40.984;2022-07-17T05:57:20;99967.22;;;20.74;53.30
59391;BME280;53405;57.012;40.984;2022-07-17T06:00:08;99959.69;;;20.71;53.74
59391;BME280;53405;57.012;40.984;2022-07-17T06:02:59;99958.53;;;20.84;53.30
59391;BME280;53405;57.012;40.984;2022-07-17T06:05:46;99969.88;;;20.91;53.59
59391;BME280;53405;57.012;40.984;2022-07-17T06:08:34;99960.75;;;20.92;52.41
59391;BME280;53405;57.012;40.984;2022-07-17T06:11:22;99962.31;;;21.05;52.29
59391;BME280;53405;57.012;40.984;2022-07-17T06:14:13;99951.50;;;21.00;52.08
59391;BME280;53405;57.012;40.984;2022-07-17T06:17:01;99961.16;;;21.01;52.38
59391;BME280;53405;57.012;40.984;2022-07-17T06:19:49;99975.06;;;21.20;52.24
59391;BME280;53405;57.012;40.984;2022-07-17T06:22:40;99949.16;;;21.25;52.11
59391;BME280;53405;57.012;40.984;2022-07-17T06:25:28;99959.25;;;21.62;50.96
59391;BME280;53405;57.012;40.984;2022-07-17T06:28:15;99963.28;;;21.65;51.54
59391;BME280;53405;57.012;40.984;2022-07-17T06:31:03;99954.88;;;21.83;50.12
59391;BME280;53405;57.012;40.984;2022-07-17T06:33:51;99961.31;;;21.82;49.96
59391;BME280;53405;57.012;40.984;2022-07-17T06:36:38;99936.38;;;21.82;49.80
59391;BME280;53405;57.012;40.984;2022-07-17T06:39:26;99950.19;;;21.96;49.01
59391;BME280;53405;57.012;40.984;2022-07-17T06:42:14;99955.31;;;22.02;49.70
59391;BME280;53405;57.012;40.984;2022-07-17T06:45:01;99947.00;;;21.99;48.56
59391;BME280;53405;57.012;40.984;2022-07-17T06:47:49;99962.09;;;22.10;49.77
59391;BME280;53405;57.012;40.984;2022-07-17T06:50:37;99951.75;;;22.24;47.97
59391;BME280;53405;57.012;40.984;2022-07-17T06:53:24;99953.81;;;22.12;48.39
59391;BME280;53405;57.012;40.984;2022-07-17T06:56:13;99948.44;;;22.12;48.77
59391;BME280;53405;57.012;40.984;2022-07-17T06:59:00;99946.69;;;22.28;48.28
59391;BME280;53405;57.012;40.984;2022-07-17T07:01:48;99946.25;;;22.36;46.99
59391;BME280;53405;57.012;40.984;2022-07-17T07:04:36;99948.63;;;22.32;47.08
59391;BME280;53405;57.012;40.984;2022-07-17T07:07:24;99944.75;;;22.18;46.38
59391;BME280;53405;57.012;40.984;2022-07-17T07:10:12;99955.22;;;22.19;46.87
59391;BME280;53405;57.012;40.984;2022-07-17T07:12:59;99936.50;;;22.25;47.07
59391;BME280;53405;57.012;40.984;2022-07-17T07:15:48;99949.50;;;22.38;46.85
59391;BME280;53405;57.012;40.984;2022-07-17T07:18:36;99947.47;;;22.61;47.02
59391;BME280;53405;57.012;40.984;2022-07-17T07:21:24;99943.06;;;22.82;46.35
59391;BME280;53405;57.012;40.984;2022-07-17T07:24:13;99950.13;;;22.98;46.03
59391;BME280;53405;57.012;40.984;2022-07-17T07:27:01;99928.72;;;23.08;44.94
59391;BME280;53405;57.012;40.984;2022-07-17T07:29:48;99947.81;;;23.17;45.47
59391;BME280;53405;57.012;40.984;2022-07-17T07:32:38;99943.28;;;23.23;44.02
59391;BME280;53405;57.012;40.984;2022-07-17T07:35:26;99941.69;;;23.32;44.80
59391;BME280;53405;57.012;40.984;2022-07-17T07:38:13;99942.03;;;23.56;44.23
59391;BME280;53405;57.012;40.984;2022-07-17T07:41:01;99942.03;;;23.61;43.55
59391;BME280;53405;57.012;40.984;2022-07-17T07:43:48;99949.88;;;23.78;43.87
59391;BME280;53405;57.012;40.984;2022-07-17T07:46:36;99939.69;;;24.01;43.08
59391;BME280;53405;57.012;40.984;2022-07-17T07:49:24;99933.53;;;24.11;42.97
59391;BME280;53405;57.012;40.984;2022-07-17T07:52:11;99939.69;;;24.11;41.41
59391;BME280;53405;57.012;40.984;2022-07-17T07:54:59;99929.38;;;23.47;41.54
59391;BME280;53405;57.012;40.984;2022-07-17T07:57:50;99933.91;;;23.41;42.42
59391;BME280;53405;57.012;40.984;2022-07-17T08:00:48;99937.22;;;23.79;42.19
59391;BME280;53405;57.012;40.984;2022-07-17T08:03:36;99933.25;;;23.97;42.50
59391;BME280;53405;57.012;40.984;2022-07-17T08:06:23;99921.69;;;24.07;42.72
59391;BME280;53405;57.012;40.984;2022-07-17T08:09:11;99925.69;;;24.40;42.03
59391;BME280;53405;57.012;40.984;2022-07-17T08:11:59;99928.66;;;24.64;41.31
59391;BME280;53405;57.012;40.984;2022-07-17T08:14:47;99929.47;;;24.44;40.09
59391;BME280;53405;57.012;40.984;2022-07-17T08:17:34;99924.06;;;24.49;39.88
59391;BME280;53405;57.012;40.984;2022-07-17T08:20:22;99919.75;;;24.48;40.68
59391;BME280;53405;57.012;40.984;2022-07-17T08:23:10;99913.53;;;24.68;39.80
59391;BME280;53405;57.012;40.984;2022-07-17T08:25:57;99920.22;;;24.81;41.04
59391;BME280;53405;57.012;40.984;2022-07-17T08:28:45;99922.41;;;24.69;42.16
59391;BME280;53405;57.012;40.984;2022-07-17T08:31:33;99920.50;;;24.85;41.87
59391;BME280;53405;57.012;40.984;2022-07-17T08:34:21;99930.66;;;25.09;38.86
59391;BME280;53405;57.012;40.984;2022-07-17T08:37:09;99923.19;;;25.50;38.60
59391;BME280;53405;57.012;40.984;2022-07-17T08:39:57;99938.59;;;25.39;39.18
59391;BME280;53405;57.012;40.984;2022-07-17T08:42:44;99934.16;;;25.09;39.32
59391;BME280;53405;57.012;40.984;2022-07-17T08:45:33;99919.75;;;24.59;40.25
59391;BME280;53405;57.012;40.984;2022-07-17T08:48:20;99886.47;;;23.88;40.62
59391;BME280;53405;57.012;40.984;2022-07-17T08:51:09;99917.88;;;23.72;41.39
59391;BME280;53405;57.012;40.984;2022-07-17T08:53:57;99915.19;;;23.72;41.80
59391;BME280;53405;57.012;40.984;2022-07-17T08:56:45;99921.09;;;23.63;41.72
59391;BME280;53405;57.012;40.984;2022-07-17T08:59:33;99921.06;;;23.48;42.20
59391;BME280;53405;57.012;40.984;2022-07-17T09:02:21;99924.28;;;23.50;43.08
59391;BME280;53405;57.012;40.984;2022-07-17T09:05:08;99919.47;;;23.62;42.75
59391;BME280;53405;57.012;40.984;2022-07-17T09:07:57;99927.03;;;23.96;42.17
59391;BME280;53405;57.012;40.984;2022-07-17T09:10:47;99923.97;;;24.91;39.85
59391;BME280;53405;57.012;40.984;2022-07-17T09:13:35;99921.41;;;25.25;39.05
59391;BME280;53405;57.012;40.984;2022-07-17T09:16:22;99924.09;;;25.30;37.29
59391;BME280;53405;57.012;40.984;2022-07-17T09:19:10;99915.16;;;24.75;37.00
59391;BME280;53405;57.012;40.984;2022-07-17T09:22:06;99911.66;;;24.48;38.88
59391;BME280;53405;57.012;40.984;2022-07-17T09:24:56;99919.75;;;24.59;38.44
59391;BME280;53405;57.012;40.984;2022-07-17T09:27:45;99918.63;;;25.85;37.69
59391;BME280;53405;57.012;40.984;2022-07-17T09:30:35;99893.66;;;27.11;34.33
59391;BME280;53405;57.012;40.984;2022-07-17T09:33:26;99922.69;;;28.00;31.21
59391;BME280;53405;57.012;40.984;2022-07-17T09:36:14;99931.00;;;27.28;32.58
59391;BME280;53405;57.012;40.984;2022-07-17T09:39:02;99931.22;;;26.59;33.27
59391;BME280;53405;57.012;40.984;2022-07-17T09:41:49;99921.25;;;27.08;33.29
59391;BME280;53405;57.012;40.984;2022-07-17T09:44:37;99933.69;;;28.37;31.73
59391;BME280;53405;57.012;40.984;2022-07-17T09:47:26;99944.56;;;28.92;30.33
59391;BME280;53405;57.012;40.984;2022-07-17T09:50:16;99938.75;;;28.99;31.23
59391;BME280;53405;57.012;40.984;2022-07-17T09:53:07;99945.31;;;27.85;33.95
59391;BME280;53405;57.012;40.984;2022-07-17T09:55:55;99947.91;;;27.14;33.85
59391;BME280;53405;57.012;40.984;2022-07-17T09:58:49;99956.00;;;26.37;35.36
59391;BME280;53405;57.012;40.984;2022-07-17T10:01:39;99951.63;;;25.72;36.98
59391;BME280;53405;57.012;40.984;2022-07-17T10:04:27;99940.31;;;25.10;39.04
59391;BME280;53405;57.012;40.984;2022-07-17T10:07:15;99946.31;;;24.91;38.91
59391;BME280;53405;57.012;40.984;2022-07-17T10:10:04;99940.75;;;24.67;39.62
59391;BME280;53405;57.012;40.984;2022-07-17T10:12:52;99941.25;;;24.79;39.94
59391;BME280;53405;57.012;40.984;2022-07-17T10:15:40;99940.69;;;25.53;38.30
59391;BME280;53405;57.012;40.984;2022-07-17T10:21:23;99936.31;;;26.90;32.53
59391;BME280;53405;57.012;40.984;2022-07-17T10:24:10;99946.78;;;27.77;31.56
59391;BME280;53405;57.012;40.984;2022-07-17T10:26:58;99921.94;;;28.55;30.67
59391;BME280;53405;57.012;40.984;2022-07-17T10:29:46;99941.19;;;29.51;29.95
59391;BME280;53405;57.012;40.984;2022-07-17T10:32:35;99920.00;;;28.89;28.72
59391;BME280;53405;57.012;40.984;2022-07-17T10:35:24;99921.75;;;27.86;30.11
59391;BME280;53405;57.012;40.984;2022-07-17T10:38:13;99925.25;;;27.10;32.08
59391;BME280;53405;57.012;40.984;2022-07-17T10:41:03;99937.78;;;28.01;31.58
59391;BME280;53405;57.012;40.984;2022-07-17T10:43:50;99926.41;;;28.93;29.73
59391;BME280;53405;57.012;40.984;2022-07-17T10:46:38;99927.28;;;28.74;30.97
59391;BME280;53405;57.012;40.984;2022-07-17T10:49:26;99921.16;;;29.24;31.39
59391;BME280;53405;57.012;40.984;2022-07-17T10:52:14;99926.38;;;29.34;31.06
59391;BME280;53405;57.012;40.984;2022-07-17T10:55:03;99929.97;;;29.80;29.52
59391;BME280;53405;57.012;40.984;2022-07-17T10:57:55;99929.50;;;30.63;28.67
59391;BME280;53405;57.012;40.984;2022-07-17T11:03:58;99907.28;;;30.70;28.66
59391;BME280;53405;57.012;40.984;2022-07-17T11:06:46;99925.66;;;31.22;26.57
59391;BME280;53405;57.012;40.984;2022-07-17T11:09:34;99920.53;;;31.47;26.04
59391;BME280;53405;57.012;40.984;2022-07-17T11:12:30;99918.94;;;31.37;26.16
59391;BME280;53405;57.012;40.984;2022-07-17T11:15:19;99919.44;;;31.30;26.83
59391;BME280;53405;57.012;40.984;2022-07-17T11:18:17;99916.19;;;31.02;27.72
59391;BME280;53405;57.012;40.984;2022-07-17T11:21:06;99939.22;;;31.05;27.66
59391;BME280;53405;57.012;40.984;2022-07-17T11:23:55;99929.34;;;30.37;29.81
59391;BME280;53405;57.012;40.984;2022-07-17T11:26:43;99936.41;;;30.78;30.24
59391;BME280;53405;57.012;40.984;2022-07-17T11:29:38;99920.56;;;30.72;30.45
59391;BME280;53405;57.012;40.984;2022-07-17T11:32:37;99928.44;;;30.19;31.16
59391;BME280;53405;57.012;40.984;2022-07-17T11:35:26;99905.06;;;28.63;33.09
59391;BME280;53405;57.012;40.984;2022-07-17T11:38:29;99922.44;;;27.97;33.84
59391;BME280;53405;57.012;40.984;2022-07-17T11:41:17;99925.25;;;27.34;34.64
59391;BME280;53405;57.012;40.984;2022-07-17T11:44:27;99909.78;;;26.73;35.18
59391;BME280;53405;57.012;40.984;2022-07-17T11:47:29;99934.28;;;26.52;36.20
59391;BME280;53405;57.012;40.984;2022-07-17T11:50:16;99945.34;;;26.50;37.29
59391;BME280;53405;57.012;40.984;2022-07-17T11:53:05;99941.09;;;26.15;40.91
59391;BME280;53405;57.012;40.984;2022-07-17T11:55:53;99930.34;;;25.70;41.94
59391;BME280;53405;57.012;40.984;2022-07-17T11:58:43;99927.50;;;25.51;43.43
59391;BME280;53405;57.012;40.984;2022-07-17T12:01:43;99932.75;;;25.22;43.42
59391;BME280;53405;57.012;40.984;2022-07-17T12:04:31;99913.44;;;24.99;43.98
59391;BME280;53405;57.012;40.984;2022-07-17T12:07:20;99942.81;;;25.01;44.45
59391;BME280;53405;57.012;40.984;2022-07-17T12:10:20;99922.63;;;25.93;42.65
59391;BME280;53405;57.012;40.984;2022-07-17T12:13:09;99934.03;;;26.78;40.82
59391;BME280;53405;57.012;40.984;2022-07-17T12:15:57;99940.66;;;27.72;39.68
59391;BME280;53405;57.012;40.984;2022-07-17T12:19:06;99940.34;;;28.58;36.21
59391;BME280;53405;57.012;40.984;2022-07-17T12:22:03;99935.72;;;29.00;35.46
59391;BME280;53405;57.012;40.984;2022-07-17T12:24:51;99938.59;;;28.48;36.37
59391;BME280;53405;57.012;40.984;2022-07-17T12:27:39;99940.00;;;27.61;37.57
59391;BME280;53405;57.012;40.984;2022-07-17T12:30:27;99944.13;;;26.91;39.34
59391;BME280;53405;57.012;40.984;2022-07-17T12:33:16;99932.84;;;27.08;38.25
59391;BME280;53405;57.012;40.984;2022-07-17T12:36:03;99926.84;;;26.68;39.06
59391;BME280;53405;57.012;40.984;2022-07-17T12:38:51;99938.44;;;26.10;40.82
59391;BME280;53405;57.012;40.984;2022-07-17T12:41:39;99927.38;;;25.72;42.05
59391;BME280;53405;57.012;40.984;2022-07-17T12:44:27;99938.28;;;25.51;41.45
59391;BME280;53405;57.012;40.984;2022-07-17T12:47:15;99937.59;;;25.20;42.74
59391;BME280;53405;57.012;40.984;2022-07-17T12:50:15;99929.63;;;24.99;42.85
59391;BME280;53405;57.012;40.984;2022-07-17T12:53:04;99926.72;;;24.80;43.09
59391;BME280;53405;57.012;40.984;2022-07-17T12:55:52;99922.16;;;24.76;44.14
59391;BME280;53405;57.012;40.984;2022-07-17T12:58:40;99932.13;;;24.65;43.76
59391;BME280;53405;57.012;40.984;2022-07-17T13:01:27;99923.50;;;24.52;44.07
59391;BME280;53405;57.012;40.984;2022-07-17T13:04:15;99923.25;;;24.39;44.77
59391;BME280;53405;57.012;40.984;2022-07-17T13:07:12;99918.72;;;24.29;44.86
59391;BME280;53405;57.012;40.984;2022-07-17T13:10:00;99932.97;;;24.34;44.65
59391;BME280;53405;57.012;40.984;2022-07-17T13:12:49;99932.44;;;24.27;44.26
59391;BME280;53405;57.012;40.984;2022-07-17T13:15:37;99941.31;;;24.23;44.54
59391;BME280;53405;57.012;40.984;2022-07-17T13:18:24;99937.25;;;24.20;44.66
59391;BME280;53405;57.012;40.984;2022-07-17T13:21:13;99934.34;;;24.06;45.59
59391;BME280;53405;57.012;40.984;2022-07-17T13:24:01;99933.75;;;23.84;46.30
59391;BME280;53405;57.012;40.984;2022-07-17T13:26:49;99933.44;;;23.64;47.22
59391;BME280;53405;57.012;40.984;2022-07-17T13:29:36;99925.91;;;23.56;47.90
59391;BME280;53405;57.012;40.984;2022-07-17T13:32:24;99932.88;;;23.52;47.73
59391;BME280;53405;57.012;40.984;2022-07-17T13:35:13;99924.81;;;23.52;47.22
59391;BME280;53405;57.012;40.984;2022-07-17T13:38:00;99932.34;;;23.50;48.79
59391;BME280;53405;57.012;40.984;2022-07-17T13:40:50;99935.28;;;23.43;49.65
59391;BME280;53405;57.012;40.984;2022-07-17T13:43:46;99928.75;;;23.19;53.06
59391;BME280;53405;57.012;40.984;2022-07-17T13:46:34;99917.88;;;22.93;55.18
59391;BME280;53405;57.012;40.984;2022-07-17T13:49:22;99940.00;;;22.63;58.35
59391;BME280;53405;57.012;40.984;2022-07-17T13:52:09;99940.94;;;22.41;58.12
59391;BME280;53405;57.012;40.984;2022-07-17T13:54:57;99946.66;;;22.23;59.50
59391;BME280;53405;57.012;40.984;2022-07-17T13:57:56;99950.50;;;21.99;59.95
59391;BME280;53405;57.012;40.984;2022-07-17T14:00:44;99968.53;;;21.82;63.16
59391;BME280;53405;57.012;40.984;2022-07-17T14:03:32;99966.28;;;21.69;62.92
59391;BME280;53405;57.012;40.984;2022-07-17T14:06:19;99969.03;;;21.52;62.74
59391;BME280;53405;57.012;40.984;2022-07-17T14:09:07;99975.09;;;21.47;63.10
59391;BME280;53405;57.012;40.984;2022-07-17T14:11:55;99979.75;;;21.52;62.52
59391;BME280;53405;57.012;40.984;2022-07-17T14:14:43;99973.38;;;21.58;60.63
59391;BME280;53405;57.012;40.984;2022-07-17T14:17:30;99986.28;;;21.61;61.87
59391;BME280;53405;57.012;40.984;2022-07-17T14:20:18;99995.19;;;21.44;62.21
59391;BME280;53405;57.012;40.984;2022-07-17T14:23:05;99986.75;;;21.36;62.59
59391;BME280;53405;57.012;40.984;2022-07-17T14:25:53;99993.66;;;21.32;62.28
59391;BME280;53405;57.012;40.984;2022-07-17T14:28:40;99977.44;;;21.16;63.45
59391;BME280;53405;57.012;40.984;2022-07-17T14:31:29;99983.03;;;21.15;63.57
59391;BME280;53405;57.012;40.984;2022-07-17T14:34:17;99988.19;;;21.21;62.71
59391;BME280;53405;57.012;40.984;2022-07-17T14:37:05;99973.13;;;21.15;61.93
59391;BME280;53405;57.012;40.984;2022-07-17T14:39:55;99981.84;;;21.27;61.74
59391;BME280;53405;57.012;40.984;2022-07-17T14:42:42;99987.56;;;21.36;61.26
59391;BME280;53405;57.012;40.984;2022-07-17T14:45:30;99981.47;;;21.41;60.04